Time;durP1;ratioP1;P1;durP2;ratioP2;P2;SDS_P1;SDS_P2;PMS_P1;PMS_P2;Temp;Humidity;BMP_temperature;BMP_pressure;BME280_temperature;BME280_humidity;BME280_pressure;Samples;Min_cycle;Max_cycle;Signal;HPM_P1;HPM_P2
2021/08/26 01:50:25;;;;;;;109.60;104.23;;;15.00;99.90;;;;;;4860247;29;20457;-86
2021/08/26 01:52:58;;;;;;;121.10;114.80;;;15.00;99.90;;;;;;4948933;28;20214;-89
2021/08/26 01:55:27;;;;;;;126.20;120.27;;;15.00;99.90;;;;;;4973198;28;20572;-88
2021/08/26 01:57:55;;;;;;;129.30;123.23;;;15.00;99.90;;;;;;4974003;28;20462;-87
2021/08/26 02:00:24;;;;;;;124.13;118.37;;;15.00;99.90;;;;;;4974072;28;20467;-88
2021/08/26 02:02:51;;;;;;;140.10;133.60;;;15.00;99.90;;;;;;4999396;28;20552;-87
2021/08/26 02:05:21;;;;;;;146.33;139.50;;;15.00;99.90;;;;;;5012992;28;20535;-90
2021/08/26 02:07:51;;;;;;;148.07;141.00;;;14.90;99.90;;;;;;5012751;28;20474;-89
2021/08/26 02:10:25;;;;;;;158.03;150.50;;;15.00;99.90;;;;;;5011759;28;20477;-90
2021/08/26 02:12:52;;;;;;;168.77;160.53;;;15.00;99.90;;;;;;5012751;28;20477;-88
2021/08/26 02:15:23;;;;;;;182.93;174.13;;;15.00;99.90;;;;;;5012779;28;20519;-88
2021/08/26 02:18:04;;;;;;;182.23;173.03;;;15.00;99.90;;;;;;5071591;28;20456;-88
2021/08/26 02:21:03;;;;;;;221.20;210.47;;;14.90;99.90;;;;;;5054443;28;20451;-88
2021/08/26 02:23:43;;;;;;;272.00;259.20;;;15.00;99.90;;;;;;5039422;28;20947;-88
2021/08/26 02:26:13;;;;;;;292.80;278.90;;;15.00;99.90;;;;;;5053145;28;20470;-87
2021/08/26 02:32:08;;;;;;;272.90;261.00;;;15.00;99.90;;;;;;5014798;28;20458;-92
2021/08/26 02:34:49;;;;;;;146.40;140.27;;;14.80;99.90;;;;;;5055332;28;20485;-91
2021/08/26 02:37:26;;;;;;;183.00;175.13;;;14.50;99.90;;;;;;5055580;28;20451;-91
2021/08/26 02:43:34;;;;;;;156.50;149.70;;;14.40;99.90;;;;;;5009098;28;20814;-91
2021/08/26 02:46:11;;;;;;;133.70;127.53;;;14.20;99.90;;;;;;5053636;28;20550;-88
2021/08/26 02:48:48;;;;;;;104.87;100.37;;;14.20;99.90;;;;;;5054105;28;20458;-86
2021/08/26 02:51:44;;;;;;;86.83;82.93;;;14.10;99.90;;;;;;5054076;28;20450;-90
2021/08/26 02:54:23;;;;;;;98.97;94.67;;;14.10;99.90;;;;;;5023028;28;21139;-92
2021/08/26 02:57:41;;;;;;;97.83;93.27;;;14.10;99.90;;;;;;5053764;28;20541;-91
2021/08/26 03:00:47;;;;;;;96.70;92.67;;;14.00;99.90;;;;;;4988323;28;20458;-90
2021/08/26 03:03:27;;;;;;;140.67;134.33;;;14.00;99.90;;;;;;5002429;28;20465;-88
2021/08/26 03:05:57;;;;;;;179.23;169.87;;;14.00;99.90;;;;;;5048475;28;20459;-87
2021/08/26 03:08:26;;;;;;;209.10;198.43;;;14.00;99.90;;;;;;5053330;28;20481;-88
2021/08/26 03:11:00;;;;;;;218.70;209.03;;;14.10;99.90;;;;;;5052360;28;20454;-88
2021/08/26 03:13:27;;;;;;;219.70;209.97;;;14.20;99.90;;;;;;5053443;28;20470;-87
2021/08/26 03:15:55;;;;;;;223.00;212.57;;;14.10;99.90;;;;;;5053220;28;20895;-88
2021/08/26 03:18:25;;;;;;;233.87;223.17;;;14.20;99.90;;;;;;5056619;28;20459;-87
2021/08/26 03:20:56;;;;;;;228.27;217.77;;;14.10;99.90;;;;;;5073258;28;20465;-88
2021/08/26 03:23:28;;;;;;;234.87;223.97;;;14.00;99.90;;;;;;5073107;28;20469;-88
2021/08/26 03:26:01;;;;;;;249.23;237.40;;;14.20;99.90;;;;;;5072309;28;20904;-87
2021/08/26 03:28:29;;;;;;;252.03;241.13;;;14.10;99.90;;;;;;5073152;28;20469;-86
2021/08/26 03:30:55;;;;;;;249.33;238.03;;;14.10;99.90;;;;;;5073146;28;20457;-87
2021/08/26 03:33:24;;;;;;;263.97;252.00;;;14.10;99.90;;;;;;5073454;28;20516;-88
2021/08/26 03:36:10;;;;;;;238.67;227.87;;;14.10;99.90;;;;;;5072907;28;20561;-89
2021/08/26 03:38:55;;;;;;;223.80;212.97;;;14.10;99.90;;;;;;5067073;28;20482;-88
2021/08/26 03:44:12;;;;;;;248.13;236.97;;;14.20;99.90;;;;;;5052392;28;20460;-89
2021/08/26 03:46:45;;;;;;;264.33;252.50;;;14.10;99.90;;;;;;5052931;28;20455;-87
2021/08/26 03:49:24;;;;;;;273.30;260.80;;;14.10;99.90;;;;;;5052963;28;21279;-90
2021/08/26 03:51:53;;;;;;;282.77;269.53;;;14.10;99.90;;;;;;5052995;28;20997;-87
2021/08/26 03:54:20;;;;;;;281.00;267.80;;;14.20;99.90;;;;;;5051888;28;20536;-87
2021/08/26 03:56:59;;;;;;;;;;;;;;;;;;;;;
2021/08/26 03:59:29;;;;;;;293.27;280.13;;;14.20;99.90;;;;;;5034868;28;20451;-88
2021/08/26 04:02:02;;;;;;;293.97;280.40;;;14.30;99.90;;;;;;5052805;28;20459;-86
2021/08/26 04:04:31;;;;;;;296.00;282.70;;;14.20;99.90;;;;;;5052798;28;20534;-87
2021/08/26 04:06:58;;;;;;;283.93;270.63;;;14.30;99.90;;;;;;5052733;28;20463;-86
2021/08/26 04:09:25;;;;;;;280.90;267.87;;;14.20;99.90;;;;;;5051517;28;20462;-86
2021/08/26 04:11:52;;;;;;;287.50;274.00;;;14.30;99.90;;;;;;5052338;28;20451;-87
2021/08/26 04:14:25;;;;;;;284.97;271.67;;;14.20;99.90;;;;;;5052766;28;20496;-87
2021/08/26 04:16:55;;;;;;;294.47;280.83;;;14.20;99.90;;;;;;5052695;28;20458;-86
2021/08/26 04:19:22;;;;;;;292.53;278.80;;;14.30;99.90;;;;;;5052685;28;20804;-89
2021/08/26 04:21:50;;;;;;;288.03;274.47;;;14.30;99.90;;;;;;5052487;28;20546;-83
2021/08/26 04:24:17;;;;;;;285.87;272.23;;;14.30;99.90;;;;;;5051066;28;20650;-81
2021/08/26 04:26:44;;;;;;;299.70;285.67;;;14.40;99.90;;;;;;5052660;28;20884;-82
2021/08/26 04:29:11;;;;;;;290.20;276.60;;;14.40;99.90;;;;;;5052426;28;20466;-81
2021/08/26 04:31:38;;;;;;;279.33;265.70;;;14.40;99.90;;;;;;5051966;28;20467;-81
2021/08/26 04:34:06;;;;;;;298.07;283.97;;;14.50;99.90;;;;;;5052573;28;20486;-81
2021/08/26 04:36:35;;;;;;;294.73;280.47;;;14.40;99.90;;;;;;5052165;28;21028;-81
2021/08/26 04:39:03;;;;;;;289.17;274.73;;;14.50;99.90;;;;;;5060583;28;20470;-83
2021/08/26 04:41:32;;;;;;;277.00;263.70;;;14.40;99.90;;;;;;5072437;28;20545;-86
2021/08/26 04:43:59;;;;;;;268.13;255.23;;;14.40;99.90;;;;;;5072399;28;20465;-85
2021/08/26 04:46:27;;;;;;;253.63;240.33;;;14.40;99.90;;;;;;5072328;28;21190;-79
2021/08/26 04:48:55;;;;;;;231.27;219.57;;;14.40;99.90;;;;;;5072205;28;20457;-83
2021/08/26 04:51:29;;;;;;;233.00;221.83;;;14.40;99.90;;;;;;5072695;28;20505;-83
2021/08/26 04:54:18;;;;;;;191.60;182.20;;;14.40;99.90;;;;;;5071325;28;20460;-82
2021/08/26 04:56:45;;;;;;;199.53;189.40;;;14.30;99.90;;;;;;5072137;28;20864;-86
2021/08/26 04:59:12;;;;;;;187.10;177.23;;;14.40;99.90;;;;;;5072262;28;20960;-84
2021/08/26 05:01:48;;;;;;;145.50;137.97;;;14.40;99.90;;;;;;5071923;28;20462;-89
2021/08/26 05:04:20;;;;;;;99.17;94.07;;;14.30;99.90;;;;;;5072018;28;20521;-86
2021/08/26 05:06:47;;;;;;;93.83;89.10;;;14.20;99.90;;;;;;5072109;28;20466;-86
2021/08/26 05:09:19;;;;;;;84.10;79.90;;;14.10;99.90;;;;;;5071127;28;20465;-91
2021/08/26 05:11:46;;;;;;;81.73;77.40;;;14.00;99.90;;;;;;5071921;28;20957;-86
2021/08/26 05:14:22;;;;;;;81.70;76.60;;;14.00;99.90;;;;;;5072186;28;20462;-88
2021/08/26 05:16:49;;;;;;;75.97;72.03;;;14.10;99.90;;;;;;5072105;28;20478;-81
2021/08/26 05:19:18;;;;;;;72.93;69.50;;;14.10;99.90;;;;;;5072076;28;20536;-86
2021/08/26 05:21:54;;;;;;;86.77;82.13;;;14.10;99.90;;;;;;5072265;28;20804;-86
2021/08/26 05:24:25;;;;;;;92.60;88.20;;;14.20;99.90;;;;;;5072677;28;20809;-86
2021/08/26 05:26:56;;;;;;;96.63;91.40;;;14.30;99.90;;;;;;5075777;28;20455;-87
2021/08/26 05:29:44;;;;;;;104.57;99.07;;;14.20;99.90;;;;;;5075421;28;20537;-85
2021/08/26 05:32:11;;;;;;;105.03;97.67;;;14.30;99.90;;;;;;5075724;28;20508;-88
2021/08/26 05:34:37;;;;;;;101.37;96.00;;;14.30;99.90;;;;;;5075449;28;20446;-83
2021/08/26 05:37:04;;;;;;;100.63;95.23;;;14.40;99.90;;;;;;5075528;28;20565;-79
2021/08/26 05:39:32;;;;;;;94.13;89.00;;;14.40;99.90;;;;;;5087606;28;20469;-84
2021/08/26 05:41:59;;;;;;;83.87;79.53;;;14.40;99.90;;;;;;5078150;28;20447;-84
2021/08/26 05:44:26;;;;;;;77.20;73.50;;;14.40;99.90;;;;;;5075574;28;20487;-83
2021/08/26 05:47:03;;;;;;;71.10;68.00;;;14.40;99.90;;;;;;5075194;28;20520;-83
2021/08/26 05:49:32;;;;;;;76.73;72.83;;;14.50;99.90;;;;;;5075032;28;20546;-88
2021/08/26 05:51:58;;;;;;;84.43;80.10;;;14.60;99.90;;;;;;5074984;28;20778;-89
2021/08/26 05:54:25;;;;;;;90.57;84.97;;;14.50;99.90;;;;;;5073905;28;20548;-87
2021/08/26 05:56:58;;;;;;;103.60;98.37;;;14.60;99.90;;;;;;5074873;28;20482;-86
2021/08/26 05:59:27;;;;;;;111.47;105.67;;;14.70;99.90;;;;;;5075204;28;20451;-86
2021/08/26 06:02:00;;;;;;;104.30;98.97;;;14.70;99.90;;;;;;5074834;28;20458;-84
2021/08/26 06:04:27;;;;;;;104.97;99.77;;;14.60;99.90;;;;;;5074894;28;20466;-87
2021/08/26 06:06:56;;;;;;;81.67;77.33;;;14.80;99.90;;;;;;5074946;28;20950;-91
2021/08/26 06:09:25;;;;;;;78.40;74.30;;;14.80;99.90;;;;;;5073917;28;20446;-87
2021/08/26 06:12:10;;;;;;;77.23;73.50;;;14.80;99.90;;;;;;5075016;28;20474;-87
2021/08/26 06:14:38;;;;;;;65.67;62.17;;;14.70;99.90;;;;;;5064136;28;21094;-90
2021/08/26 06:17:05;;;;;;;68.10;64.10;;;14.70;99.90;;;;;;5074535;28;20478;-88
2021/08/26 06:19:32;;;;;;;71.20;67.43;;;14.80;99.90;;;;;;5074455;28;20460;-90
2021/08/26 06:21:59;;;;;;;68.77;65.07;;;14.80;99.90;;;;;;5074594;28;20454;-90
2021/08/26 06:24:35;;;;;;;67.10;63.37;;;14.80;99.90;;;;;;5074368;28;20498;-87
2021/08/26 06:27:49;;;;;;;71.67;68.43;;;14.80;99.90;;;;;;5074358;28;20446;-92
2021/08/26 06:33:54;;;;;;;85.50;81.30;;;14.90;99.90;;;;;;5070371;28;20446;-85
2021/08/26 06:36:21;;;;;;;81.27;76.97;;;14.80;99.90;;;;;;5073910;28;20539;-85
2021/08/26 06:38:48;;;;;;;85.93;81.53;;;14.90;99.90;;;;;;5066646;28;20455;-88
2021/08/26 06:41:36;;;;;;;73.77;69.33;;;14.90;99.90;;;;;;5053370;28;20458;-86
2021/08/26 06:44:05;;;;;;;73.77;69.67;;;14.90;99.90;;;;;;5054134;28;20450;-88
2021/08/26 06:47:02;;;;;;;79.20;74.33;;;14.90;99.90;;;;;;5053993;28;20451;-91
2021/08/26 06:49:52;;;;;;;70.53;67.10;;;15.10;99.90;;;;;;5053992;28;20462;-90
2021/08/26 06:59:36;;;;;;;;;;;;;;;;;;;;;
2021/08/26 07:50:58;;;;;;;;;;;;;;;;;;;;;
2021/08/26 08:11:23;;;;;;;11.67;3.40;;;16.80;68.00;;;;;;4165437;26;20543;-85
2021/08/26 08:17:58;;;;;;;11.13;2.70;;;16.80;70.90;;;;;;4783654;29;20492;-87
2021/08/26 08:20:51;;;;;;;;;;;;;;;;;;;;;
2021/08/26 08:41:53;;;;;;;;;;;;;;;;;;;;;
2021/08/26 08:45:01;;;;;;;6.83;2.30;;;17.00;61.20;;;;;;4792197;29;20481;-85
2021/08/26 11:40:53;;;;;;;;;;;;;;;;;;;;;
2021/08/26 12:33:13;;;;;;;6.23;2.40;;;18.80;38.80;;;;;;4795611;29;20482;-87
2021/08/26 12:36:03;;;;;;;7.10;2.03;;;18.10;41.80;;;;;;4895728;29;20474;-87
2021/08/26 12:38:42;;;;;;;6.83;2.07;;;18.10;42.60;;;;;;4899092;29;20486;-89
2021/08/26 12:41:17;;;;;;;5.83;2.00;;;18.00;40.20;;;;;;4898926;29;20454;-89
2021/08/26 12:43:53;;;;;;;7.13;3.60;;;18.20;43.20;;;;;;4900117;29;20549;-87
2021/08/26 12:46:44;;;;;;;6.23;2.50;;;18.40;39.90;;;;;;4900148;29;20890;-87
2021/08/26 12:49:12;;;;;;;7.30;1.80;;;18.40;40.70;;;;;;4899934;29;20466;-86
2021/08/26 12:52:12;;;;;;;4.43;1.77;;;18.70;41.70;;;;;;4946439;29;20494;-89
2021/08/26 12:54:45;;;;;;;6.43;2.10;;;18.90;41.30;;;;;;4933454;29;20452;-88
2021/08/26 12:57:23;;;;;;;8.07;2.40;;;19.10;35.90;;;;;;4959746;29;20550;-86
2021/08/26 13:00:30;;;;;;;5.80;1.60;;;19.30;40.30;;;;;;4959132;29;20463;-84
2021/08/26 13:02:59;;;;;;;6.37;1.70;;;19.60;36.60;;;;;;4959579;29;20498;-85
2021/08/26 13:06:14;;;;;;;6.20;1.90;;;19.70;36.50;;;;;;4961265;29;20463;-85
2021/08/26 13:08:53;;;;;;;7.20;1.80;;;19.80;33.90;;;;;;4927360;29;20455;-89
2021/08/26 13:11:21;;;;;;;5.20;1.50;;;20.10;35.40;;;;;;4957129;29;20460;-84
2021/08/26 13:14:01;;;;;;;6.20;1.63;;;20.50;35.80;;;;;;4958346;29;20894;-85
2021/08/26 13:16:47;;;;;;;5.37;1.73;;;20.50;33.20;;;;;;4957974;29;20487;-89
2021/08/26 13:22:23;;;;;;;4.70;1.87;;;20.50;33.40;;;;;;5600342;23;20599;-87
2021/08/26 13:25:41;;;;;;;5.90;1.37;;;19.90;34.00;;;;;;4952132;29;20495;-87
2021/08/26 13:28:59;;;;;;;;;;;;;;;;;;;;;
2021/08/26 13:31:42;;;;;;;;;;;;;;;;;;;;;
2021/08/26 13:34:11;;;;;;;5.83;2.00;;;20.60;30.70;;;;;;4957294;29;20483;-87
2021/08/26 13:40:28;;;;;;;6.17;3.20;;;20.50;33.00;;;;;;4949200;29;20824;-84
2021/08/26 13:43:01;;;;;;;9.90;2.10;;;19.80;35.10;;;;;;4957603;29;20893;-87
2021/08/26 13:48:31;;;;;;;6.20;2.20;;;20.60;32.40;;;;;;4957091;29;20884;-84
2021/08/26 13:51:22;;;;;;;7.13;2.50;;;20.40;34.20;;;;;;4957239;29;20455;-88
2021/08/26 13:54:11;;;;;;;8.63;2.90;;;20.30;32.10;;;;;;4951856;29;20463;-87
2021/08/26 13:56:44;;;;;;;8.53;2.53;;;20.30;29.70;;;;;;4957170;29;20479;-82
2021/08/26 13:59:17;;;;;;;5.77;1.90;;;20.20;32.70;;;;;;4957097;29;20470;-88
2021/08/26 14:01:55;;;;;;;7.93;2.50;;;20.00;33.60;;;;;;4956712;29;20455;-89
2021/08/26 14:04:38;;;;;;;;;;;;;;;;;;;;;
2021/08/26 14:07:11;;;;;;;7.90;2.67;;;20.70;32.50;;;;;;4956921;29;20471;-86
2021/08/26 14:09:41;;;;;;;6.77;2.13;;;20.70;30.20;;;;;;4956941;29;20460;-87
2021/08/26 14:12:23;;;;;;;;;;;;;;;;;;;;;
2021/08/26 14:18:12;;;;;;;7.00;2.80;;;20.60;29.40;;;;;;4955364;29;20523;-82
2021/08/26 14:20:53;;;;;;;12.23;4.60;;;20.00;30.50;;;;;;4956660;29;20535;-85
2021/08/26 14:23:55;;;;;;;7.43;1.30;;;20.70;28.20;;;;;;4955767;28;20991;-85
2021/08/26 14:30:00;;;;;;;12.33;2.73;;;21.90;27.30;;;;;;4920402;28;20452;-83
2021/08/26 14:33:16;;;;;;;;;;;;;;;;;;;;;
2021/08/26 14:36:04;;;;;;;6.23;1.90;;;21.80;24.10;;;;;;4928828;23;20487;-85
2021/08/26 14:38:55;;;;;;;9.43;1.97;;;21.70;23.50;;;;;;4973689;28;20549;-86
2021/08/26 14:41:55;;;;;;;5.70;1.90;;;21.20;27.20;;;;;;4973254;28;20871;-85
2021/08/26 14:44:51;;;;;;;;;;;;;;;;;;;;;
2021/08/26 14:47:56;;;;;;;4.40;1.53;;;21.40;22.60;;;;;;4974000;28;20786;-86
2021/08/26 14:51:00;;;;;;;7.50;2.10;;;22.20;21.30;;;;;;4974036;28;20457;-86
2021/08/26 14:53:50;;;;;;;6.00;1.83;;;22.00;21.20;;;;;;4926449;28;20466;-83
2021/08/26 14:56:39;;;;;;;7.57;2.43;;;21.10;23.00;;;;;;4972522;28;20470;-87
2021/08/26 14:59:10;;;;;;;5.00;1.53;;;20.90;25.00;;;;;;4973722;28;20969;-83
2021/08/26 15:01:51;;;;;;;7.00;2.60;;;21.20;26.70;;;;;;4973702;28;20791;-83
2021/08/26 15:04:32;;;;;;;;;;;;;;;;;;;;;
2021/08/26 15:07:03;;;;;;;6.57;1.90;;;20.60;27.10;;;;;;4973421;28;20518;-83
2021/08/26 15:16:14;;;;;;;8.33;2.30;;;19.60;30.00;;;;;;4964517;28;20541;-82
2021/08/26 15:19:12;;;;;;;7.70;3.03;;;20.10;30.00;;;;;;4973396;28;20581;-86
2021/08/26 16:12:55;;;;;;;9.90;2.70;;;21.00;24.30;;;;;;4865648;29;20934;-84
2021/08/26 16:15:26;;;;;;;10.50;2.43;;;20.70;24.80;;;;;;4934470;29;20491;-85
2021/08/26 16:17:56;;;;;;;10.07;3.43;;;20.20;27.20;;;;;;4934196;29;20511;-86
2021/08/26 16:20:36;;;;;;;11.80;3.87;;;19.90;28.90;;;;;;4934198;29;20471;-85
2021/08/26 16:26:21;;;;;;;12.27;3.30;;;19.50;32.10;;;;;;4988951;23;20498;-85
2021/08/26 16:29:31;;;;;;;;;;;;;;;;;;;;;
2021/08/26 16:46:30;;;;;;;8.10;4.07;;;18.50;33.90;;;;;;4719116;30;20195;-82
2021/08/26 16:56:02;;;;;;;10.03;3.30;;;18.40;30.70;;;;;;4773956;30;20456;-84
2021/08/26 17:08:37;;;;;;;10.07;3.90;;;17.70;40.60;;;;;;4922080;28;20851;-84
2021/08/26 17:11:09;;;;;;;11.43;3.30;;;17.30;47.70;;;;;;4953408;29;20559;-84
2021/08/26 17:13:40;;;;;;;18.00;4.80;;;17.10;57.30;;;;;;4954258;29;20459;-85
2021/08/26 17:20:15;;;;;;;;;;;;;;;;;;;;;
2021/08/26 17:23:41;;;;;;;;;;;;;;;;;;;;;
2021/08/26 17:45:49;;;;;;;;;;;;;;;;;;;;;
2021/08/26 17:48:32;;;;;;;30.53;28.87;;;15.00;99.90;;;;;;4752442;30;20472;-88
2021/08/26 17:51:10;;;;;;;36.23;34.30;;;15.00;99.90;;;;;;4768210;30;20559;-86
2021/08/26 17:53:40;;;;;;;42.00;39.77;;;14.80;99.90;;;;;;4820567;29;20468;-86
2021/08/26 17:56:21;;;;;;;43.97;41.67;;;14.70;99.90;;;;;;4858396;29;20466;-89
2021/08/26 17:58:57;;;;;;;50.43;48.03;;;14.70;99.90;;;;;;4859215;29;21393;-89
2021/08/26 18:01:31;;;;;;;64.03;60.33;;;14.70;99.90;;;;;;4858959;29;20472;-84
2021/08/26 18:03:59;;;;;;;105.23;100.17;;;14.60;99.90;;;;;;4858946;29;20454;-84
2021/08/26 18:06:26;;;;;;;131.13;124.83;;;14.70;99.90;;;;;;4859149;29;20817;-83
2021/08/26 18:08:57;;;;;;;152.40;144.33;;;14.70;99.90;;;;;;4859235;29;20511;-84
2021/08/26 18:11:37;;;;;;;193.80;184.53;;;14.80;99.90;;;;;;4858741;29;20508;-83
2021/08/26 18:14:08;;;;;;;212.43;202.43;;;14.90;99.90;;;;;;4935374;29;20460;-83
2021/08/26 18:16:36;;;;;;;225.63;215.07;;;14.80;99.90;;;;;;4936189;29;20464;-85
2021/08/26 18:19:06;;;;;;;236.17;224.87;;;14.80;99.90;;;;;;4935955;29;20572;-83
2021/08/26 18:21:35;;;;;;;242.07;230.50;;;14.80;99.90;;;;;;4936215;29;20461;-82
2021/08/26 18:24:02;;;;;;;245.57;234.03;;;14.90;99.90;;;;;;4935301;29;20488;-82
2021/08/26 18:26:30;;;;;;;252.90;241.20;;;14.80;99.90;;;;;;4950655;29;20487;-83
2021/08/26 18:28:57;;;;;;;260.27;248.20;;;15.00;99.90;;;;;;4954904;29;20460;-84
2021/08/26 18:31:24;;;;;;;278.17;265.20;;;15.00;99.90;;;;;;4954575;28;20779;-82
2021/08/26 18:33:52;;;;;;;291.70;278.03;;;15.00;99.90;;;;;;4955109;29;20553;-82
2021/08/26 18:36:19;;;;;;;288.43;274.67;;;14.90;99.90;;;;;;4954865;29;20467;-82
2021/08/26 18:38:46;;;;;;;304.57;290.57;;;15.00;99.90;;;;;;4954737;29;21002;-84
2021/08/26 18:41:16;;;;;;;311.23;296.67;;;15.00;99.90;;;;;;4954523;29;20466;-84
2021/08/26 18:43:50;;;;;;;291.03;276.83;;;15.10;99.90;;;;;;4956288;29;21000;-81
2021/08/26 18:46:16;;;;;;;313.87;298.53;;;15.10;99.90;;;;;;4956235;29;20815;-83
2021/08/26 18:48:43;;;;;;;313.43;298.33;;;15.10;99.90;;;;;;4956087;29;20463;-82
2021/08/26 18:51:12;;;;;;;299.53;284.33;;;15.10;99.90;;;;;;4956046;29;20464;-84
2021/08/26 18:53:39;;;;;;;324.77;309.33;;;15.10;99.90;;;;;;4956158;29;20896;-82
2021/08/26 18:56:06;;;;;;;319.63;303.97;;;15.10;99.90;;;;;;4954749;29;20523;-81
2021/08/26 18:58:33;;;;;;;324.43;308.50;;;15.20;99.90;;;;;;4955841;29;20570;-82
2021/08/26 19:01:01;;;;;;;339.43;323.00;;;15.00;99.90;;;;;;4956057;29;20511;-85
2021/08/26 19:03:28;;;;;;;339.03;323.23;;;15.10;99.90;;;;;;4955973;29;20471;-82
2021/08/26 19:05:57;;;;;;;332.20;316.70;;;15.10;99.90;;;;;;4955836;29;20466;-84
2021/08/26 19:08:26;;;;;;;323.67;307.67;;;15.10;99.90;;;;;;4955677;29;20456;-82
2021/08/26 19:10:53;;;;;;;320.20;305.43;;;15.10;99.90;;;;;;4954600;29;20580;-82
2021/08/26 19:13:21;;;;;;;315.00;300.60;;;15.00;99.90;;;;;;4955717;29;20858;-84
2021/08/26 19:15:50;;;;;;;308.43;294.50;;;15.00;99.90;;;;;;4955842;29;20456;-84
2021/08/26 19:18:17;;;;;;;307.20;292.70;;;14.90;99.90;;;;;;4955511;29;20491;-81
2021/08/26 19:20:44;;;;;;;292.67;279.20;;;14.90;99.90;;;;;;4955744;29;20463;-84
2021/08/26 19:23:11;;;;;;;308.97;294.37;;;14.80;99.90;;;;;;4955337;29;21057;-82
2021/08/26 19:25:41;;;;;;;311.37;296.17;;;14.90;99.90;;;;;;4954350;29;20487;-85
2021/08/26 19:28:09;;;;;;;306.37;292.10;;;14.90;99.90;;;;;;4955717;29;20555;-84
2021/08/26 19:30:37;;;;;;;298.63;284.67;;;14.80;99.90;;;;;;4955384;29;20498;-84
2021/08/26 19:33:05;;;;;;;299.83;285.10;;;14.80;99.90;;;;;;4955427;29;20474;-82
2021/08/26 19:35:32;;;;;;;298.00;284.10;;;14.80;99.90;;;;;;4955294;29;20953;-87
2021/08/26 19:37:59;;;;;;;282.20;269.07;;;14.80;99.90;;;;;;4955433;29;20451;-84
2021/08/26 19:40:26;;;;;;;283.33;269.57;;;14.90;99.90;;;;;;4954236;29;20552;-85
2021/08/26 19:42:54;;;;;;;295.83;281.73;;;14.70;99.90;;;;;;4954420;28;20592;-84
2021/08/26 19:45:21;;;;;;;298.33;284.13;;;14.70;99.90;;;;;;4955064;29;20542;-82
2021/08/26 19:47:47;;;;;;;305.20;290.40;;;14.70;99.90;;;;;;4955171;29;20463;-84
2021/08/26 19:50:16;;;;;;;308.20;293.93;;;14.70;99.90;;;;;;4955021;29;20502;-82
2021/08/26 19:52:43;;;;;;;314.93;300.27;;;14.60;99.90;;;;;;4955210;29;20491;-84
2021/08/26 19:55:11;;;;;;;321.30;306.63;;;14.70;99.90;;;;;;4953906;29;20460;-83
2021/08/26 19:57:38;;;;;;;323.97;309.17;;;14.60;99.90;;;;;;4954973;29;20451;-83
2021/08/26 20:00:09;;;;;;;290.27;277.17;;;14.60;99.90;;;;;;4954944;29;20923;-83
2021/08/26 20:02:36;;;;;;;306.67;292.37;;;14.50;99.90;;;;;;4954925;29;20518;-81
2021/08/26 20:05:03;;;;;;;313.83;299.10;;;14.50;99.90;;;;;;4955030;29;20533;-82
2021/08/26 20:07:30;;;;;;;322.60;308.17;;;14.50;99.90;;;;;;4954826;29;20456;-83
2021/08/26 20:09:57;;;;;;;339.57;324.57;;;14.50;99.90;;;;;;4954041;29;20503;-82
2021/08/26 20:12:23;;;;;;;339.87;324.47;;;14.50;99.90;;;;;;4955082;29;20887;-82
2021/08/26 20:14:51;;;;;;;329.83;314.07;;;14.50;99.90;;;;;;4954875;29;20463;-82
2021/08/26 20:17:19;;;;;;;333.93;319.03;;;14.40;99.90;;;;;;4954740;29;20543;-83
2021/08/26 20:19:46;;;;;;;327.20;312.97;;;14.30;99.90;;;;;;4954735;29;20495;-81
2021/08/26 20:22:13;;;;;;;329.07;313.97;;;14.20;99.90;;;;;;4954611;29;21066;-82
2021/08/26 20:24:41;;;;;;;340.67;325.17;;;14.20;99.90;;;;;;4953671;29;20534;-82
2021/08/26 20:27:08;;;;;;;346.03;330.47;;;14.10;99.90;;;;;;4954627;29;20495;-83
2021/08/26 20:29:40;;;;;;;337.17;321.87;;;14.10;99.90;;;;;;4954621;29;20456;-81
2021/08/26 20:32:08;;;;;;;341.80;325.60;;;14.00;99.90;;;;;;4954631;29;20491;-83
2021/08/26 20:34:37;;;;;;;303.33;289.20;;;13.90;99.90;;;;;;4954574;29;20452;-81
2021/08/26 20:37:04;;;;;;;322.97;308.50;;;13.80;99.90;;;;;;4954785;29;20473;-82
2021/08/26 20:39:32;;;;;;;336.23;320.70;;;13.70;99.90;;;;;;4953397;29;20570;-83
2021/08/26 20:41:59;;;;;;;339.47;324.70;;;13.70;99.90;;;;;;4954571;29;20462;-84
2021/08/26 20:44:29;;;;;;;325.00;310.20;;;13.60;99.90;;;;;;4955256;29;20491;-82
2021/08/26 20:47:00;;;;;;;355.43;339.40;;;13.50;99.90;;;;;;4954547;29;20543;-82
2021/08/26 20:49:27;;;;;;;358.30;341.63;;;13.50;99.90;;;;;;4954480;29;20534;-83
2021/08/26 20:51:55;;;;;;;355.77;340.17;;;13.40;99.90;;;;;;4954470;29;20544;-84
2021/08/26 20:54:24;;;;;;;354.20;338.83;;;13.30;99.90;;;;;;4944049;28;20552;-84
2021/08/26 20:56:51;;;;;;;360.73;344.73;;;13.30;99.90;;;;;;4927966;29;20456;-84
2021/08/26 20:59:18;;;;;;;359.37;343.77;;;13.30;99.90;;;;;;4921698;29;20483;-83
2021/08/26 21:01:46;;;;;;;350.47;335.00;;;13.20;99.90;;;;;;4919900;29;20555;-82
2021/08/26 21:04:12;;;;;;;338.47;323.07;;;13.10;99.90;;;;;;4919998;29;20459;-83
2021/08/26 21:06:41;;;;;;;350.17;334.47;;;13.20;99.90;;;;;;4920023;29;20900;-82
2021/08/26 21:09:10;;;;;;;339.63;324.30;;;13.10;99.90;;;;;;4918656;29;20952;-82
2021/08/26 21:11:40;;;;;;;344.10;328.43;;;13.00;99.90;;;;;;4919704;29;20545;-84
2021/08/26 21:14:07;;;;;;;326.03;311.63;;;13.00;99.90;;;;;;4920068;29;20488;-83
2021/08/26 21:16:35;;;;;;;317.83;303.97;;;13.00;99.90;;;;;;4919706;29;20467;-82
2021/08/26 21:19:02;;;;;;;297.13;284.27;;;12.90;99.90;;;;;;4919897;29;20568;-84
2021/08/26 21:21:28;;;;;;;291.47;278.87;;;12.90;99.90;;;;;;4919610;29;20558;-83
2021/08/26 21:24:01;;;;;;;261.43;250.03;;;12.80;99.90;;;;;;4919557;29;20555;-82
2021/08/26 21:26:30;;;;;;;243.23;232.93;;;12.80;99.90;;;;;;4919519;29;21290;-83
2021/08/26 21:28:57;;;;;;;217.27;207.67;;;12.70;99.90;;;;;;4919579;29;20516;-84
2021/08/26 21:31:28;;;;;;;212.47;203.17;;;12.70;99.90;;;;;;4919503;29;20559;-83
2021/08/26 21:33:55;;;;;;;223.23;213.53;;;12.60;99.90;;;;;;4919626;29;20471;-82
2021/08/26 21:36:22;;;;;;;216.23;206.77;;;12.60;99.90;;;;;;4919435;29;20892;-82
2021/08/26 21:38:48;;;;;;;214.80;205.27;;;12.50;99.90;;;;;;4919148;29;21141;-83
2021/08/26 21:41:18;;;;;;;218.53;208.97;;;12.40;99.90;;;;;;4918217;29;20467;-83
2021/08/26 21:43:46;;;;;;;236.27;225.67;;;12.40;99.90;;;;;;4919418;29;20490;-81
2021/08/26 21:46:15;;;;;;;240.80;230.27;;;12.20;99.90;;;;;;4919235;29;20814;-81
2021/08/26 21:48:41;;;;;;;266.63;255.17;;;12.20;99.90;;;;;;4919075;29;21030;-82
2021/08/26 21:51:10;;;;;;;279.97;267.77;;;12.10;99.90;;;;;;4919061;29;20501;-82
2021/08/26 21:53:37;;;;;;;296.03;283.73;;;11.90;99.90;;;;;;4918997;29;20454;-83
2021/08/26 21:56:08;;;;;;;297.47;284.67;;;11.80;99.90;;;;;;4918032;29;20549;-82
2021/08/26 21:58:35;;;;;;;306.17;292.77;;;11.70;99.90;;;;;;4918999;29;20967;-84
2021/08/26 22:01:07;;;;;;;326.80;312.90;;;11.50;99.90;;;;;;4918961;29;20525;-85
2021/08/26 22:03:34;;;;;;;339.93;325.23;;;11.60;99.90;;;;;;4918853;29;20460;-82
2021/08/26 22:06:07;;;;;;;351.00;335.70;;;11.50;99.90;;;;;;4917799;29;20556;-83
2021/08/26 22:08:33;;;;;;;362.67;346.27;;;11.50;99.90;;;;;;4918973;29;20516;-82
2021/08/26 22:11:01;;;;;;;378.47;361.87;;;11.50;99.90;;;;;;4917643;29;20487;-83
2021/08/26 22:13:28;;;;;;;371.40;355.17;;;11.60;99.90;;;;;;4918690;29;20465;-82
2021/08/26 22:15:58;;;;;;;374.20;356.57;;;11.60;99.90;;;;;;4918694;29;20462;-82
2021/08/26 22:18:27;;;;;;;367.80;351.83;;;11.50;99.90;;;;;;4918556;29;20505;-83
2021/08/26 22:20:54;;;;;;;359.43;343.77;;;11.40;99.90;;;;;;4918668;29;20526;-82
2021/08/26 22:23:21;;;;;;;377.60;360.73;;;11.30;99.90;;;;;;4918640;29;20579;-82
2021/08/26 22:25:49;;;;;;;364.77;349.10;;;11.30;99.90;;;;;;4917445;29;20511;-82
2021/08/26 22:28:16;;;;;;;375.43;358.73;;;11.20;99.90;;;;;;4918744;29;20886;-82
2021/08/26 22:30:43;;;;;;;365.77;349.77;;;11.10;99.90;;;;;;4918338;29;20489;-82
2021/08/26 22:33:11;;;;;;;375.90;359.73;;;11.10;99.90;;;;;;4920134;29;20541;-83
2021/08/26 22:35:40;;;;;;;366.57;350.60;;;11.10;99.90;;;;;;4918369;29;20850;-83
2021/08/26 22:38:07;;;;;;;363.40;347.60;;;11.00;99.90;;;;;;4918265;29;20833;-81
2021/08/26 22:40:34;;;;;;;367.33;350.90;;;10.90;99.90;;;;;;4917209;29;20862;-83
2021/08/26 22:43:01;;;;;;;365.43;349.17;;;10.90;99.90;;;;;;4918400;29;20518;-82
2021/08/26 22:45:27;;;;;;;381.50;363.50;;;10.80;99.90;;;;;;4918063;29;20843;-82